LFKF Airport Information

Runway Information
Runway 05 Length 8136 ft width 148 ft
Elevation 40 ft Threshold 0 ft Heading 48
Runway 23 Length 8136 ft Width 148 ft
Elevation 86 ft Threshold 0 ft Heading 228
Airport Frequencies
Type ATIS Name FIGARI INF Frequency 118.725 MHZ
Type GND Name FIGARI GND Frequency 121.8 MHZ
Type TWR Name FIGARI TWR Frequency 120.3 MHZ
Airport Navaids
Type VOR-DME Name Figari Frequency 116700 KHZ
Airport Weather Information & NOTAM
ADDS - METARS form results

(2308 UTC 12 July 2020)
Data provider http://aviationweather.gov/metar/data/
 
METAR text: LFKF 122300Z AUTO 01002KT CAVOK 19/18 Q1016
Conditions at: LFKF (FIGARI (AUT) , FR) observed 2300 UTC 12 July 2020
Temperature: 19.0°C (66°F)
Dewpoint: 18.0°C (64°F) [RH = 94%]
Pressure (altimeter): 30.00 inches Hg (1016.0 mb)
Winds: from the N (10 degrees) at 2 MPH (2 knots; 1.0 m/s)
Visibility: 6 or more miles (10+ km)
Ceiling: ceiling and visibility are OK
Clouds: unknown
Weather: no significant weather observed at this time

METAR text: LFKF 122230Z AUTO VRB02KT CAVOK 19/18 Q1016
Conditions at: LFKF (FIGARI (AUT) , FR) observed 2230 UTC 12 July 2020
Temperature: 19.0°C (66°F)
Dewpoint: 18.0°C (64°F) [RH = 94%]
Pressure (altimeter): 30.00 inches Hg (1016.0 mb)
Winds: variable direction winds at 2 MPH (2 knots; 1.0 m/s)
Visibility: 6 or more miles (10+ km)
Ceiling: ceiling and visibility are OK
Clouds: unknown
Weather: no significant weather observed at this time

Forecast for: LFKF (FIGARI (AUT) , FR)
Text: TAF LFKF 121400Z 1215/1315 21008KT CAVOK
Forecast period: 1500 to 1700 UTC 12 July 2020
Forecast type: FROM: standard forecast or significant change
Winds: from the SSW (210 degrees) at 9 MPH (8 knots; 4.1 m/s)
Visibility: 6 or more miles 10+ km)
Ceiling: unknown
Clouds: missing
Weather: NSW  (no significant weather)
Text: BECMG 1217/1220 04005KT
Forecast period: 1700 UTC 12 July 2020 to 0700 UTC 13 July 2020
Forecast type: BECOMING: Conditions expected to become as follows by 2000 UTC 12 July 2020
Winds: from the NE (40 degrees) at 6 MPH (5 knots; 2.6 m/s)
Visibility: 6 or more miles 10+ km)
Ceiling: unknown
Clouds: missing
Weather: NSW  (no significant weather)
Text: BECMG 1307/1310 22010KT 9999 NSC
Forecast period: 0700 to 1500 UTC 13 July 2020
Forecast type: BECOMING: Conditions expected to become as follows by 1000 UTC 13 July 2020
Winds: from the SW (220 degrees) at 12 MPH (10 knots; 5.1 m/s)
Visibility: 6 or more miles 10+ km)
Ceiling: unknown
Clouds: missing
Weather: NSW  (no significant weather)